createdAt,value
2022-08-11T00:02:15.366Z,12.60
2022-08-11T00:07:13.411Z,12.58
2022-08-11T00:12:14.084Z,12.58
2022-08-11T00:17:14.877Z,12.58
2022-08-11T00:22:15.613Z,12.58
2022-08-11T00:27:16.249Z,12.58
2022-08-11T00:32:16.939Z,12.58
2022-08-11T00:37:20.150Z,12.57
2022-08-11T00:42:20.799Z,12.60
2022-08-11T00:47:21.513Z,12.57
2022-08-11T00:52:22.641Z,12.58
2022-08-11T00:57:36.466Z,12.58
2022-08-11T01:02:23.712Z,12.57
2022-08-11T01:07:58.908Z,12.56
2022-08-11T01:12:30.061Z,12.58
2022-08-11T01:17:25.942Z,12.56
2022-08-11T01:22:36.310Z,12.56
2022-08-11T01:27:27.290Z,12.56
2022-08-11T01:32:28.058Z,12.57
2022-08-11T01:37:32.063Z,12.57
2022-08-11T01:42:32.619Z,12.57
2022-08-11T01:47:33.243Z,12.56
2022-08-11T01:52:35.095Z,12.56
2022-08-11T01:57:34.312Z,12.56
2022-08-11T02:02:34.971Z,12.55
2022-08-11T02:07:36.540Z,12.57
2022-08-11T02:12:52.730Z,12.55
2022-08-11T02:17:42.141Z,12.55
2022-08-11T02:23:05.651Z,12.55
2022-08-11T02:26:36.759Z,12.55
2022-08-11T02:32:04.897Z,12.56
2022-08-11T02:36:37.036Z,12.55
2022-08-11T02:41:38.174Z,12.55
2022-08-11T02:46:38.520Z,12.55
2022-08-11T02:51:39.205Z,12.55
2022-08-11T02:56:39.801Z,12.55
2022-08-11T03:01:40.563Z,12.55
2022-08-11T03:06:41.293Z,12.55
2022-08-11T03:11:41.952Z,12.55
2022-08-11T03:16:42.827Z,12.55
2022-08-11T03:21:52.468Z,12.55
2022-08-11T03:26:44.248Z,12.54
2022-08-11T03:31:45.012Z,12.55
2022-08-11T03:36:54.629Z,12.54
2022-08-11T03:41:57.716Z,12.55
2022-08-11T03:46:46.989Z,12.54
2022-08-11T03:51:51.636Z,12.55
2022-08-11T03:56:48.411Z,12.55
2022-08-11T04:01:49.168Z,12.58
2022-08-11T04:06:55.175Z,12.59
2022-08-11T04:11:50.529Z,12.59
2022-08-11T04:16:51.136Z,12.59
2022-08-11T04:21:54.737Z,12.61
2022-08-11T04:26:55.362Z,12.61
2022-08-11T04:31:56.476Z,12.64
2022-08-11T04:36:56.811Z,12.65
2022-08-11T04:41:57.515Z,12.64
2022-08-11T04:46:58.276Z,12.65
2022-08-11T04:51:59.607Z,12.65
2022-08-11T04:57:02.919Z,12.65
2022-08-11T05:02:03.524Z,12.69
2022-08-11T05:07:03.970Z,12.68
2022-08-11T05:12:04.811Z,12.68
2022-08-11T05:17:06.890Z,12.69
2022-08-11T05:22:13.634Z,12.71
2022-08-11T05:27:13.484Z,12.70
2022-08-11T05:32:11.545Z,12.71
2022-08-11T05:37:25.972Z,12.69
2022-08-11T05:42:20.993Z,12.73
2022-08-11T05:47:17.607Z,12.72
2022-08-11T05:52:16.418Z,12.74
2022-08-11T05:57:42.418Z,12.72
2022-08-11T06:02:15.106Z,12.72
2022-08-11T06:07:15.610Z,12.74
2022-08-11T06:12:16.263Z,12.74
2022-08-11T06:17:17.420Z,12.74
2022-08-11T06:22:18.101Z,12.74
2022-08-11T06:27:18.733Z,12.76
2022-08-11T06:32:21.924Z,12.78
2022-08-11T06:37:22.491Z,12.79
2022-08-11T06:42:32.809Z,12.78
2022-08-11T06:47:24.041Z,12.81
2022-08-11T06:52:44.006Z,12.82
2022-08-11T06:57:29.654Z,12.83
2022-08-11T07:02:30.594Z,12.88
2022-08-11T07:07:27.012Z,12.86
2022-08-11T07:12:28.080Z,12.88
2022-08-11T07:17:28.519Z,12.90
2022-08-11T07:22:29.568Z,12.90
2022-08-11T07:27:35.561Z,12.92
2022-08-11T07:32:34.131Z,12.94
2022-08-11T07:37:33.979Z,12.94
2022-08-11T07:42:34.758Z,12.96
2022-08-11T07:47:40.129Z,12.99
2022-08-11T07:52:36.211Z,12.99
2022-08-11T07:57:42.266Z,13.00
2022-08-11T08:02:42.692Z,13.01
2022-08-11T08:07:38.118Z,13.00
2022-08-11T08:12:38.958Z,13.00
2022-08-11T08:17:39.418Z,13.01
2022-08-11T08:22:46.460Z,13.01
2022-08-11T08:27:43.594Z,13.04
2022-08-11T08:32:44.906Z,13.04
2022-08-11T08:37:47.455Z,13.05
2022-08-11T08:42:45.851Z,13.05
2022-08-11T08:47:48.762Z,13.03
2022-08-11T08:52:47.616Z,13.05
2022-08-11T08:57:47.968Z,13.04
2022-08-11T09:02:50.453Z,13.04
2022-08-11T09:07:49.053Z,13.05
2022-08-11T09:12:49.834Z,13.03
2022-08-11T09:17:53.088Z,13.05
2022-08-11T09:29:14.739Z,13.07
2022-08-11T09:33:04.628Z,13.05
2022-08-11T09:37:56.553Z,13.08
2022-08-11T09:42:56.829Z,13.07
2022-08-11T09:47:56.914Z,13.10
2022-08-11T09:53:35.437Z,13.14
2022-08-11T09:58:03.675Z,13.17
2022-08-11T10:03:04.350Z,13.16
2022-08-11T10:08:05.107Z,13.16
2022-08-11T10:13:06.087Z,13.19
2022-08-11T10:18:06.905Z,13.18
2022-08-11T10:23:07.210Z,13.15
2022-08-11T10:28:17.243Z,13.16
2022-08-11T10:33:08.504Z,13.19
2022-08-11T10:38:12.057Z,13.18
2022-08-11T10:43:13.032Z,13.15
2022-08-11T10:48:15.590Z,13.13
2022-08-11T10:53:14.221Z,13.14
2022-08-11T10:58:14.294Z,13.11
2022-08-11T11:03:22.585Z,13.09
2022-08-11T11:11:49.484Z,13.04
2022-08-11T11:16:28.660Z,13.09
2022-08-11T11:21:31.033Z,13.10
2022-08-11T11:26:32.984Z,13.16
2022-08-11T11:31:48.212Z,13.18
2022-08-11T11:36:34.283Z,13.18
2022-08-11T11:41:39.728Z,13.14
2022-08-11T11:46:38.621Z,13.10
2022-08-11T11:51:40.655Z,13.10
2022-08-11T11:56:40.237Z,13.11
2022-08-11T12:01:41.948Z,13.08
2022-08-11T12:06:45.222Z,13.09
2022-08-11T12:11:40.535Z,13.10
2022-08-11T12:16:56.166Z,13.06
2022-08-11T12:21:50.905Z,13.09
2022-08-11T12:26:48.091Z,13.03
2022-08-11T12:31:48.786Z,13.03
2022-08-11T12:36:48.264Z,13.00
2022-08-11T12:41:43.881Z,13.00
2022-08-11T12:46:47.317Z,13.00
2022-08-11T12:52:01.291Z,13.00
2022-08-11T12:56:54.193Z,13.00
2022-08-11T13:01:48.850Z,13.00
2022-08-11T13:06:50.347Z,12.99
2022-08-11T13:11:54.980Z,12.99
2022-08-11T13:16:51.153Z,12.98
2022-08-11T13:21:57.417Z,12.99
2022-08-11T13:26:57.145Z,12.98
2022-08-11T13:31:55.449Z,12.99
2022-08-11T13:36:56.429Z,12.98
2022-08-11T13:41:57.097Z,12.98
2022-08-11T13:47:07.174Z,13.00
2022-08-11T13:51:58.487Z,12.98
2022-08-11T13:56:58.724Z,12.97
2022-08-11T14:02:04.232Z,12.97
2022-08-11T14:07:04.788Z,12.98
2022-08-11T14:12:20.786Z,12.98
2022-08-11T14:17:01.998Z,12.98
2022-08-11T14:22:07.526Z,12.95
2022-08-11T14:28:15.501Z,12.94
2022-08-11T14:32:05.920Z,12.95
2022-08-11T14:37:17.161Z,12.95
2022-08-11T14:42:11.977Z,12.95
2022-08-11T14:47:23.528Z,12.93
2022-08-11T14:52:08.486Z,12.94
2022-08-11T14:57:12.919Z,12.92
2022-08-11T15:02:10.490Z,12.95
2022-08-11T15:07:16.271Z,12.94
2022-08-11T15:12:31.354Z,12.93
2022-08-11T15:17:14.301Z,12.95
2022-08-11T15:22:15.302Z,12.95
2022-08-11T15:27:27.919Z,12.94
2022-08-11T15:32:16.161Z,12.94
2022-08-11T15:37:16.792Z,12.97
2022-08-11T15:42:22.819Z,12.96
2022-08-11T15:47:28.429Z,13.00
2022-08-11T15:52:27.380Z,12.98
2022-08-11T15:58:42.892Z,13.00
2022-08-11T16:11:41.210Z,13.00
2022-08-11T16:16:40.777Z,13.01
2022-08-11T16:27:06.381Z,13.01
2022-08-11T16:31:29.177Z,13.03
2022-08-11T16:41:37.413Z,13.00
2022-08-11T16:46:36.436Z,13.02
2022-08-11T16:51:38.290Z,13.01
2022-08-11T16:56:37.835Z,12.94
2022-08-11T17:01:38.377Z,12.93
2022-08-11T17:06:37.335Z,12.91
2022-08-11T17:11:36.927Z,12.89
2022-08-11T17:16:37.268Z,12.85
2022-08-11T17:21:43.749Z,12.84
2022-08-11T17:26:38.774Z,12.82
2022-08-11T17:31:40.884Z,12.80
2022-08-11T17:36:44.715Z,12.77
2022-08-11T17:41:40.580Z,12.75
2022-08-11T17:46:43.886Z,12.75
2022-08-11T17:51:44.953Z,12.74
2022-08-11T17:56:45.259Z,12.73
2022-08-11T18:01:45.832Z,12.74
2022-08-11T18:06:47.253Z,12.73
2022-08-11T18:12:06.288Z,12.72
2022-08-11T18:16:48.227Z,12.70
2022-08-11T18:22:00.670Z,12.71
2022-08-11T18:26:51.641Z,12.71
2022-08-11T18:31:55.761Z,12.68
2022-08-11T18:36:53.014Z,12.68
2022-08-11T18:41:53.532Z,12.66
2022-08-11T18:46:54.184Z,12.66
2022-08-11T18:51:54.929Z,12.65
2022-08-11T18:56:55.522Z,12.65
2022-08-11T19:01:56.634Z,12.65
2022-08-11T19:06:59.565Z,12.63
2022-08-11T19:12:01.221Z,12.62
2022-08-11T19:17:02.350Z,12.61
2022-08-11T19:22:01.969Z,12.61
2022-08-11T19:27:08.649Z,12.61
2022-08-11T19:32:02.768Z,12.59
2022-08-11T19:37:04.595Z,12.58
2022-08-11T19:42:04.152Z,12.58
2022-08-11T19:47:06.764Z,12.58
2022-08-11T19:52:12.123Z,12.56
2022-08-11T19:57:11.448Z,12.55
2022-08-11T20:02:13.975Z,12.55
2022-08-11T20:07:10.250Z,12.55
2022-08-11T20:12:10.921Z,12.54
2022-08-11T20:17:13.983Z,12.54
2022-08-11T20:22:12.252Z,12.55
2022-08-11T20:27:18.529Z,12.54
2022-08-11T20:32:13.605Z,12.53
2022-08-11T20:37:17.497Z,12.54
2022-08-11T20:42:17.743Z,12.54
2022-08-11T20:47:18.276Z,12.54
2022-08-11T20:52:19.117Z,12.52
2022-08-11T20:57:19.576Z,12.53
2022-08-11T21:02:25.677Z,12.52
2022-08-11T21:07:23.633Z,12.52
2022-08-11T21:12:21.736Z,12.52
2022-08-11T21:17:27.290Z,12.52
2022-08-11T21:22:27.782Z,12.54
2022-08-11T21:27:26.607Z,12.52
2022-08-11T21:32:27.201Z,12.52
2022-08-11T21:37:27.965Z,12.51
2022-08-11T21:42:28.627Z,12.51
2022-08-11T21:47:42.583Z,12.52
2022-08-11T21:52:30.167Z,12.52
2022-08-11T21:57:30.569Z,12.50
2022-08-11T22:02:31.209Z,12.48
2022-08-11T22:07:31.899Z,12.52
2022-08-11T22:12:34.608Z,12.52
2022-08-11T22:17:33.315Z,12.52
2022-08-11T22:22:34.173Z,12.50
2022-08-11T22:27:34.814Z,12.49
2022-08-11T22:46:41.341Z,12.49
2022-08-11T22:51:40.555Z,12.50
2022-08-11T22:56:41.076Z,12.50
2022-08-11T23:01:54.860Z,12.55
2022-08-11T23:06:43.016Z,12.50
2022-08-11T23:12:00.241Z,12.49
2022-08-11T23:16:43.943Z,12.50
2022-08-11T23:21:45.194Z,12.51
2022-08-11T23:26:45.376Z,12.49
2022-08-11T23:31:50.291Z,12.50
2022-08-11T23:36:47.703Z,12.49
2022-08-11T23:41:47.492Z,12.49
2022-08-11T23:46:48.112Z,12.49
2022-08-11T23:51:51.549Z,12.50
2022-08-11T23:56:52.309Z,12.50
